createdAt,value
2019-03-25T00:01:45.749Z,4.10
2019-03-25T00:04:15.649Z,4.03
2019-03-25T00:06:45.475Z,4.13
2019-03-25T00:09:15.367Z,4.50
2019-03-25T00:11:45.278Z,4.53
2019-03-25T00:14:15.184Z,3.90
2019-03-25T00:16:45.000Z,5.17
2019-03-25T00:19:14.836Z,4.23
2019-03-25T00:21:44.653Z,5.90
2019-03-25T00:24:14.519Z,5.73
2019-03-25T00:26:44.366Z,3.43
2019-03-25T00:29:14.225Z,3.70
2019-03-25T00:31:44.023Z,3.30
2019-03-25T00:34:13.838Z,4.70
2019-03-25T00:36:43.681Z,4.40
2019-03-25T00:39:13.585Z,5.27
2019-03-25T00:41:43.389Z,3.70
2019-03-25T00:44:13.241Z,3.50
2019-03-25T00:46:43.066Z,3.90
2019-03-25T00:49:12.883Z,6.03
2019-03-25T00:51:42.704Z,2.90
2019-03-25T00:54:12.599Z,3.90
2019-03-25T00:56:42.475Z,4.57
2019-03-25T00:59:12.441Z,5.10
2019-03-25T01:01:42.261Z,4.00
2019-03-25T01:04:12.110Z,4.03
2019-03-25T01:06:41.904Z,3.73
2019-03-25T01:09:11.806Z,4.47
2019-03-25T01:11:49.003Z,4.67
2019-03-25T01:14:13.229Z,4.10
2019-03-25T01:17:35.983Z,3.90
2019-03-25T01:20:05.990Z,3.73
2019-03-25T01:22:35.839Z,4.37
2019-03-25T01:25:05.758Z,4.17
2019-03-25T01:27:35.565Z,3.65
2019-03-25T01:30:05.607Z,4.47
2019-03-25T01:32:35.450Z,4.07
2019-03-25T01:35:05.692Z,3.93
2019-03-25T01:37:35.636Z,5.17
2019-03-25T01:40:06.105Z,5.65
2019-03-25T01:42:35.904Z,4.20
2019-03-25T01:45:05.869Z,5.50
2019-03-25T01:47:35.686Z,4.73
2019-03-25T01:50:05.974Z,4.50
2019-03-25T01:52:35.792Z,4.57
2019-03-25T01:55:13.429Z,4.80
2019-03-25T01:57:37.489Z,5.45
2019-03-25T02:00:09.189Z,7.20
2019-03-25T02:02:39.001Z,6.73
2019-03-25T02:05:08.796Z,7.23
2019-03-25T02:07:38.633Z,6.30
2019-03-25T02:10:10.281Z,5.70
2019-03-25T02:12:40.092Z,5.70
2019-03-25T02:15:10.421Z,6.00
2019-03-25T02:17:40.232Z,4.83
2019-03-25T02:20:10.634Z,6.13
2019-03-25T02:22:40.585Z,5.22
2019-03-25T02:25:10.541Z,5.33
2019-03-25T02:27:40.340Z,6.10
2019-03-25T02:30:10.497Z,5.40
2019-03-25T02:32:40.407Z,4.53
2019-03-25T02:35:10.368Z,5.73
2019-03-25T02:37:40.196Z,5.67
2019-03-25T02:40:09.995Z,6.13
2019-03-25T02:42:39.789Z,6.00
2019-03-25T02:45:09.741Z,5.27
2019-03-25T02:47:39.570Z,5.13
2019-03-25T02:50:09.468Z,6.03
2019-03-25T02:52:39.341Z,7.07
2019-03-25T02:55:09.276Z,5.57
2019-03-25T02:57:39.135Z,5.30
2019-03-25T03:00:10.212Z,5.40
2019-03-25T03:02:40.182Z,5.33
2019-03-25T03:05:09.989Z,5.57
2019-03-25T03:07:39.886Z,5.10
2019-03-25T03:10:09.968Z,5.67
2019-03-25T03:12:39.853Z,4.40
2019-03-25T03:15:09.660Z,5.57
2019-03-25T03:17:39.492Z,4.67
2019-03-25T03:20:09.377Z,5.60
2019-03-25T03:22:39.173Z,4.70
2019-03-25T03:25:11.954Z,4.80
2019-03-25T03:27:41.748Z,4.97
2019-03-25T03:30:11.997Z,4.73
2019-03-25T03:32:41.899Z,4.90
2019-03-25T03:35:11.810Z,6.87
2019-03-25T03:37:41.610Z,4.93
2019-03-25T03:40:11.594Z,6.00
2019-03-25T03:42:41.396Z,4.73
2019-03-25T03:45:11.818Z,4.80
2019-03-25T03:47:41.603Z,4.70
2019-03-25T03:50:14.951Z,4.80
2019-03-25T03:52:45.141Z,5.17
2019-03-25T03:55:14.961Z,4.63
2019-03-25T03:57:45.058Z,5.53
2019-03-25T04:00:21.258Z,7.00
2019-03-25T04:02:51.060Z,5.87
2019-03-25T04:05:20.900Z,5.40
2019-03-25T04:07:50.760Z,5.80
2019-03-25T04:10:20.571Z,6.00
2019-03-25T04:12:50.409Z,6.20
2019-03-25T04:15:27.555Z,5.03
2019-03-25T04:17:57.668Z,5.70
2019-03-25T04:20:27.564Z,6.00
2019-03-25T04:22:57.394Z,5.80
2019-03-25T04:25:27.248Z,5.80
2019-03-25T04:27:57.678Z,5.13
2019-03-25T04:30:27.481Z,5.60
2019-03-25T04:32:57.302Z,5.80
2019-03-25T04:35:27.097Z,6.17
2019-03-25T04:37:56.926Z,5.93
2019-03-25T04:40:26.718Z,5.37
2019-03-25T04:42:56.562Z,6.90
2019-03-25T04:45:26.361Z,6.03
2019-03-25T04:47:56.330Z,6.43
2019-03-25T04:50:26.184Z,6.73
2019-03-25T04:52:55.971Z,6.93
2019-03-25T04:55:25.795Z,6.10
2019-03-25T04:57:55.596Z,6.00
2019-03-25T05:00:36.137Z,6.80
2019-03-25T05:03:06.600Z,5.97
2019-03-25T05:05:36.559Z,7.17
2019-03-25T05:08:06.390Z,7.30
2019-03-25T05:10:36.557Z,8.40
2019-03-25T05:13:06.393Z,7.87
2019-03-25T05:15:36.212Z,9.70
2019-03-25T05:18:06.127Z,9.60
2019-03-25T05:20:35.942Z,9.50
2019-03-25T05:23:05.773Z,9.67
2019-03-25T05:25:35.578Z,10.67
2019-03-25T05:28:05.372Z,9.67
2019-03-25T05:30:35.188Z,11.80
2019-03-25T05:33:04.989Z,10.07
2019-03-25T05:35:34.816Z,10.20
2019-03-25T05:38:04.621Z,7.93
2019-03-25T05:40:35.039Z,6.27
2019-03-25T05:43:04.839Z,6.00
2019-03-25T05:45:34.692Z,5.60
2019-03-25T05:48:04.481Z,5.30
2019-03-25T05:50:34.290Z,6.57
2019-03-25T05:53:04.164Z,7.73
2019-03-25T05:55:33.971Z,8.90
2019-03-25T05:58:03.779Z,7.60
2019-03-25T06:00:35.559Z,6.43
2019-03-25T06:03:05.475Z,4.97
2019-03-25T06:05:35.274Z,5.73
2019-03-25T06:08:05.115Z,4.50
2019-03-25T06:10:34.928Z,4.77
2019-03-25T06:13:04.723Z,3.90
2019-03-25T06:15:34.517Z,3.93
2019-03-25T06:18:04.334Z,4.63
2019-03-25T06:20:34.115Z,3.70
2019-03-25T06:23:03.930Z,4.23
2019-03-25T06:25:33.824Z,4.37
2019-03-25T06:28:03.630Z,3.90
2019-03-25T06:30:33.419Z,4.70
2019-03-25T06:33:12.007Z,4.73
2019-03-25T06:35:34.740Z,4.10
2019-03-25T06:38:04.553Z,5.00
2019-03-25T06:40:34.349Z,3.70
2019-03-25T06:43:04.133Z,3.60
2019-03-25T06:45:33.961Z,4.87
2019-03-25T06:48:03.759Z,4.10
2019-03-25T06:50:33.592Z,4.87
2019-03-25T06:53:03.444Z,4.80
2019-03-25T06:55:33.236Z,4.37
2019-03-25T06:58:03.124Z,5.83
2019-03-25T07:00:32.995Z,4.60
2019-03-25T07:03:02.821Z,4.90
2019-03-25T07:05:32.632Z,4.53
2019-03-25T07:08:02.436Z,5.13
2019-03-25T07:10:33.952Z,5.43
2019-03-25T07:13:04.198Z,6.10
2019-03-25T07:15:34.157Z,4.70
2019-03-25T07:18:04.408Z,5.70
2019-03-25T07:20:34.230Z,4.70
2019-03-25T07:23:04.104Z,4.90
2019-03-25T07:25:34.049Z,5.07
2019-03-25T07:28:03.853Z,5.00
2019-03-25T07:30:33.755Z,4.10
2019-03-25T07:33:03.550Z,4.97
2019-03-25T07:35:33.388Z,6.63
2019-03-25T07:38:03.184Z,5.57
2019-03-25T07:40:33.013Z,5.70
2019-03-25T07:43:02.834Z,5.97
2019-03-25T07:45:32.651Z,6.13
2019-03-25T07:48:04.154Z,5.67
2019-03-25T07:50:34.046Z,4.27
2019-03-25T07:53:03.856Z,4.80
2019-03-25T07:55:33.693Z,4.67
2019-03-25T07:58:03.498Z,4.90
2019-03-25T08:00:33.414Z,5.63
2019-03-25T08:03:03.300Z,5.40
2019-03-25T08:05:33.194Z,3.80
2019-03-25T08:08:03.078Z,5.83
2019-03-25T08:10:34.235Z,5.20
2019-03-25T08:13:04.280Z,4.37
2019-03-25T08:15:34.275Z,5.07
2019-03-25T08:18:04.472Z,6.17
2019-03-25T08:20:34.350Z,4.90
2019-03-25T08:23:04.212Z,5.47
2019-03-25T08:25:34.089Z,5.27
2019-03-25T08:28:03.982Z,4.00
2019-03-25T08:30:33.820Z,4.37
2019-03-25T08:33:03.635Z,3.70
2019-03-25T08:35:33.455Z,5.00
2019-03-25T08:38:03.265Z,5.60
2019-03-25T08:40:33.108Z,4.60
2019-03-25T08:43:02.957Z,5.00
2019-03-25T08:45:32.853Z,5.13
2019-03-25T08:48:02.665Z,5.50
2019-03-25T08:50:32.570Z,4.40
2019-03-25T08:53:02.369Z,4.87
2019-03-25T08:55:32.186Z,4.70
2019-03-25T08:58:11.467Z,4.77
2019-03-25T09:00:33.579Z,4.80
2019-03-25T09:03:03.397Z,4.60
2019-03-25T09:05:33.221Z,3.73
2019-03-25T09:08:03.076Z,4.37
2019-03-25T09:10:32.963Z,4.50
2019-03-25T09:13:02.869Z,4.27
2019-03-25T09:15:32.701Z,5.10
2019-03-25T09:18:02.514Z,4.10
2019-03-25T09:20:32.374Z,5.73
2019-03-25T09:23:02.198Z,5.00
2019-03-25T09:25:32.005Z,4.40
2019-03-25T09:28:03.316Z,3.17
2019-03-25T09:31:19.463Z,3.93
2019-03-25T09:33:50.469Z,2.70
2019-03-25T09:36:21.822Z,3.43
2019-03-25T09:38:52.225Z,2.73
2019-03-25T09:41:22.325Z,2.50
2019-03-25T09:43:52.146Z,3.57
2019-03-25T09:46:21.978Z,2.47
2019-03-25T09:48:51.812Z,2.60
2019-03-25T09:51:21.635Z,2.20
2019-03-25T09:53:51.460Z,2.70
2019-03-25T09:56:21.269Z,3.03
2019-03-25T09:58:51.084Z,3.20
2019-03-25T10:01:20.920Z,2.40
2019-03-25T10:03:50.720Z,3.13
2019-03-25T10:06:20.569Z,3.03
2019-03-25T10:08:50.364Z,2.60
2019-03-25T10:11:20.205Z,2.20
2019-03-25T10:13:50.029Z,3.10
2019-03-25T10:16:19.828Z,2.53
2019-03-25T10:18:49.663Z,2.80
2019-03-25T10:21:19.464Z,2.83
2019-03-25T10:23:49.350Z,3.03
2019-03-25T10:26:19.305Z,3.00
2019-03-25T10:28:49.349Z,4.13
2019-03-25T10:31:19.405Z,3.30
2019-03-25T10:33:49.234Z,2.80
2019-03-25T10:36:19.751Z,3.13
2019-03-25T10:38:49.545Z,3.00
2019-03-25T10:41:19.363Z,3.27
2019-03-25T10:43:49.188Z,2.97
2019-03-25T10:46:19.018Z,2.90
2019-03-25T10:48:48.836Z,2.80
2019-03-25T10:51:18.666Z,2.23
2019-03-25T10:53:48.476Z,1.80
2019-03-25T10:56:18.302Z,2.53
2019-03-25T10:58:50.724Z,2.33
2019-03-25T11:01:19.658Z,1.67
2019-03-25T11:03:49.446Z,1.80
2019-03-25T11:06:19.304Z,1.63
2019-03-25T11:08:49.109Z,2.47
2019-03-25T11:11:18.940Z,1.90
2019-03-25T11:13:48.916Z,2.23
2019-03-25T11:16:18.814Z,2.10
2019-03-25T11:18:48.604Z,2.40
2019-03-25T11:21:18.440Z,1.77
2019-03-25T11:23:48.237Z,2.90
2019-03-25T11:26:18.028Z,2.40
2019-03-25T11:28:47.842Z,2.30
2019-03-25T11:31:17.639Z,2.90
2019-03-25T11:33:47.468Z,2.33
2019-03-25T11:36:17.384Z,1.97
2019-03-25T11:38:48.096Z,2.10
2019-03-25T11:41:17.885Z,1.90
2019-03-25T11:43:47.691Z,2.07
2019-03-25T11:46:17.516Z,2.40
2019-03-25T11:48:47.348Z,2.67
2019-03-25T11:51:17.280Z,2.80
2019-03-25T11:53:47.100Z,2.90
2019-03-25T11:56:16.924Z,2.90
2019-03-25T11:58:46.809Z,3.03
2019-03-25T12:01:16.625Z,2.50
2019-03-25T12:03:46.449Z,3.07
2019-03-25T12:06:16.659Z,3.40
2019-03-25T12:08:46.553Z,3.00
2019-03-25T12:11:16.348Z,2.57
2019-03-25T12:13:46.168Z,5.13
2019-03-25T12:16:15.974Z,2.83
2019-03-25T12:18:45.808Z,3.23
2019-03-25T12:21:15.618Z,3.43
2019-03-25T12:23:46.401Z,2.63
2019-03-25T12:26:16.206Z,2.60
2019-03-25T12:28:46.132Z,1.83
2019-03-25T12:31:15.951Z,2.00
2019-03-25T12:33:45.801Z,2.10
2019-03-25T12:36:15.694Z,2.27
2019-03-25T12:38:47.379Z,2.37
2019-03-25T12:41:17.196Z,2.70
2019-03-25T12:43:49.875Z,2.67
2019-03-25T12:46:19.665Z,2.70
2019-03-25T12:48:49.504Z,2.57
2019-03-25T12:51:19.527Z,2.80
2019-03-25T12:53:49.368Z,2.93
2019-03-25T12:56:19.165Z,2.10
2019-03-25T12:58:49.063Z,2.37
2019-03-25T13:01:18.894Z,2.13
2019-03-25T13:03:48.719Z,3.47
2019-03-25T13:06:18.569Z,1.77
2019-03-25T13:08:48.420Z,1.20
2019-03-25T13:11:18.225Z,1.60
2019-03-25T13:13:48.053Z,1.20
2019-03-25T13:16:17.925Z,0.90
2019-03-25T13:18:47.741Z,1.40
2019-03-25T13:21:17.547Z,1.60
2019-03-25T13:23:47.380Z,2.20
2019-03-25T13:26:17.173Z,3.13
2019-03-25T13:28:46.996Z,1.67
2019-03-25T13:31:16.893Z,1.50
2019-03-25T13:33:46.768Z,1.53
2019-03-25T13:36:16.605Z,1.27
2019-03-25T13:38:46.413Z,1.53
2019-03-25T13:41:16.249Z,2.10
2019-03-25T13:43:46.057Z,2.30
2019-03-25T13:46:15.887Z,1.93
2019-03-25T13:48:45.694Z,2.40
2019-03-25T13:51:15.517Z,2.50
2019-03-25T13:53:45.326Z,2.17
2019-03-25T13:56:15.161Z,2.60
2019-03-25T13:58:45.044Z,1.70
2019-03-25T14:01:14.879Z,2.80
2019-03-25T14:03:44.684Z,2.33
2019-03-25T14:06:14.504Z,1.77
2019-03-25T14:08:44.329Z,2.20
2019-03-25T14:11:14.177Z,2.27
2019-03-25T14:13:49.223Z,2.07
2019-03-25T14:16:15.535Z,2.80
2019-03-25T14:18:45.344Z,2.67
2019-03-25T14:21:15.175Z,2.23
2019-03-25T14:23:45.242Z,3.53
2019-03-25T14:26:15.133Z,3.67
2019-03-25T14:28:44.945Z,3.20
2019-03-25T14:31:14.777Z,3.93
2019-03-25T14:33:44.573Z,3.17
2019-03-25T14:36:14.408Z,3.50
2019-03-25T14:38:44.349Z,4.07
2019-03-25T14:41:14.268Z,3.40
2019-03-25T14:43:44.277Z,3.63
2019-03-25T14:46:14.101Z,4.37
2019-03-25T14:48:44.079Z,3.00
2019-03-25T14:51:13.965Z,3.37
2019-03-25T14:53:45.264Z,2.77
2019-03-25T14:56:15.443Z,3.17
2019-03-25T14:58:45.272Z,4.47
2019-03-25T15:01:15.096Z,3.53
2019-03-25T15:03:44.924Z,2.93
2019-03-25T15:06:14.788Z,2.50
2019-03-25T15:08:44.661Z,2.80
2019-03-25T15:11:14.465Z,2.97
2019-03-25T15:13:44.356Z,3.77
2019-03-25T15:16:14.360Z,3.60
2019-03-25T15:18:44.284Z,2.70
2019-03-25T15:21:14.129Z,3.80
2019-03-25T15:23:43.952Z,3.77
2019-03-25T15:26:13.810Z,3.50
2019-03-25T15:28:43.633Z,3.07
2019-03-25T15:31:13.451Z,2.50
2019-03-25T15:33:43.273Z,2.80
2019-03-25T15:36:13.218Z,2.57
2019-03-25T15:38:43.023Z,2.43
2019-03-25T15:41:12.881Z,2.80
2019-03-25T15:43:42.738Z,2.60
2019-03-25T15:46:12.640Z,4.07
2019-03-25T15:48:42.442Z,3.37
2019-03-25T15:51:12.468Z,2.47
2019-03-25T15:53:42.272Z,1.97
2019-03-25T15:56:12.330Z,2.80
2019-03-25T15:58:42.174Z,3.43
2019-03-25T16:01:12.001Z,3.10
2019-03-25T16:03:41.829Z,2.50
2019-03-25T16:06:11.784Z,2.93
2019-03-25T16:08:41.586Z,3.03
2019-03-25T16:11:11.668Z,2.80
2019-03-25T16:13:41.602Z,2.60
2019-03-25T16:16:11.552Z,2.40
2019-03-25T16:18:44.719Z,2.30
2019-03-25T16:21:14.578Z,2.10
2019-03-25T16:23:44.667Z,2.47
2019-03-25T16:26:14.554Z,1.73
2019-03-25T16:28:44.380Z,2.00
2019-03-25T16:31:14.995Z,2.70
2019-03-25T16:33:44.997Z,2.03
2019-03-25T16:36:14.800Z,2.17
2019-03-25T16:38:44.649Z,2.87
2019-03-25T16:41:14.481Z,1.70
2019-03-25T16:43:44.345Z,2.70
2019-03-25T16:46:14.168Z,2.73
2019-03-25T16:48:44.022Z,2.53
2019-03-25T16:51:13.915Z,3.37
2019-03-25T16:53:43.755Z,3.30
2019-03-25T16:56:13.593Z,2.70
2019-03-25T16:58:43.567Z,2.50
2019-03-25T17:01:13.453Z,3.30
2019-03-25T17:03:43.397Z,3.80
2019-03-25T17:06:13.252Z,3.30
2019-03-25T17:08:43.067Z,3.00
2019-03-25T17:11:12.971Z,2.60
2019-03-25T17:13:42.969Z,2.60
2019-03-25T17:16:12.821Z,3.30
2019-03-25T17:18:42.896Z,3.23
2019-03-25T17:21:12.818Z,4.20
2019-03-25T17:23:43.818Z,3.40
2019-03-25T17:26:13.732Z,3.57
2019-03-25T17:28:43.532Z,4.50
2019-03-25T17:31:20.953Z,3.40
2019-03-25T17:33:44.930Z,4.60
2019-03-25T17:36:14.792Z,3.00
2019-03-25T17:38:44.752Z,4.17
2019-03-25T17:41:14.570Z,2.77
2019-03-25T17:43:44.523Z,3.37
2019-03-25T17:46:14.383Z,3.27
2019-03-25T17:48:44.294Z,2.70
2019-03-25T17:51:14.171Z,2.70
2019-03-25T17:53:44.210Z,3.90
2019-03-25T17:56:14.035Z,3.00
2019-03-25T17:58:43.955Z,4.00
2019-03-25T18:01:32.753Z,3.80
2019-03-25T18:04:02.887Z,2.20
2019-03-25T18:06:32.792Z,2.87
2019-03-25T18:09:02.668Z,2.90
2019-03-25T18:11:32.537Z,3.00
2019-03-25T18:14:02.422Z,2.57
2019-03-25T18:16:32.662Z,2.43
2019-03-25T18:19:02.465Z,2.70
2019-03-25T18:21:32.415Z,2.20
2019-03-25T18:24:02.286Z,2.47
2019-03-25T18:26:32.130Z,2.93
2019-03-25T18:29:03.839Z,2.10
2019-03-25T18:31:42.835Z,1.90
2019-03-25T18:34:05.239Z,2.43
2019-03-25T18:36:35.088Z,2.80
2019-03-25T18:39:07.529Z,3.00
2019-03-25T18:41:37.377Z,2.83
2019-03-25T18:44:07.245Z,2.57
2019-03-25T18:46:37.117Z,3.00
2019-03-25T18:49:06.968Z,2.97
2019-03-25T18:51:36.796Z,2.27
2019-03-25T18:54:06.624Z,4.17
2019-03-25T18:56:36.550Z,4.87
2019-03-25T18:59:06.453Z,3.63
2019-03-25T19:01:36.283Z,3.00
2019-03-25T19:04:06.118Z,3.33
2019-03-25T19:06:36.421Z,3.20
2019-03-25T19:09:08.552Z,2.93
2019-03-25T19:11:38.382Z,2.17
2019-03-25T19:14:08.281Z,2.40
2019-03-25T19:16:38.137Z,2.90
2019-03-25T19:19:08.093Z,2.47
2019-03-25T19:21:37.926Z,2.77
2019-03-25T19:24:07.813Z,2.70
2019-03-25T19:26:37.710Z,3.33
2019-03-25T19:29:11.782Z,2.97
2019-03-25T19:31:41.638Z,2.93
2019-03-25T19:34:11.642Z,3.00
2019-03-25T19:36:41.528Z,2.43
2019-03-25T19:39:11.409Z,3.53
2019-03-25T19:41:41.311Z,2.77
2019-03-25T19:44:11.119Z,2.50
2019-03-25T19:46:40.933Z,3.17
2019-03-25T19:49:10.811Z,2.50
2019-03-25T19:51:40.697Z,3.13
2019-03-25T19:54:10.587Z,3.60
2019-03-25T19:56:40.467Z,3.87
2019-03-25T19:59:10.316Z,3.70
2019-03-25T20:01:40.324Z,4.13
2019-03-25T20:04:10.213Z,4.13
2019-03-25T20:06:40.057Z,3.30
2019-03-25T20:09:09.960Z,3.70
2019-03-25T20:11:39.871Z,3.37
2019-03-25T20:14:09.806Z,3.43
2019-03-25T20:16:39.626Z,3.60
2019-03-25T20:19:09.474Z,3.47
2019-03-25T20:21:39.344Z,3.10
2019-03-25T20:24:09.253Z,3.30
2019-03-25T20:26:39.115Z,3.60
2019-03-25T20:29:08.977Z,3.20
2019-03-25T20:31:38.849Z,2.70
2019-03-25T20:34:11.365Z,3.10
2019-03-25T20:36:40.236Z,3.10
2019-03-25T20:39:10.666Z,3.90
2019-03-25T20:41:40.652Z,2.90
2019-03-25T20:44:10.529Z,2.77
2019-03-25T20:46:40.403Z,3.80
2019-03-25T20:49:10.311Z,2.90
2019-03-25T20:51:40.232Z,2.83
2019-03-25T20:54:10.058Z,3.87
2019-03-25T20:56:39.937Z,3.40
2019-03-25T20:59:09.775Z,3.27
2019-03-25T21:01:39.695Z,3.90
2019-03-25T21:04:09.547Z,3.20
2019-03-25T21:06:39.394Z,3.37
2019-03-25T21:09:09.269Z,2.60
2019-03-25T21:11:39.391Z,2.70
2019-03-25T21:14:09.281Z,3.23
2019-03-25T21:16:39.220Z,3.77
2019-03-25T21:19:09.121Z,4.67
2019-03-25T21:21:39.042Z,2.77
2019-03-25T21:24:08.997Z,6.10
2019-03-25T21:26:38.987Z,2.60
2019-03-25T21:29:08.893Z,3.10
2019-03-25T21:31:39.215Z,2.93
2019-03-25T21:34:09.260Z,3.63
2019-03-25T21:36:39.158Z,3.20
2019-03-25T21:39:09.045Z,3.40
2019-03-25T21:41:39.005Z,4.00
2019-03-25T21:44:09.880Z,3.07
2019-03-25T21:46:39.787Z,2.80
2019-03-25T21:49:09.680Z,2.90
2019-03-25T21:51:39.565Z,3.20
2019-03-25T21:54:09.440Z,2.90
2019-03-25T21:56:39.347Z,3.33
2019-03-25T21:59:10.358Z,4.53
2019-03-25T22:01:40.197Z,4.67
2019-03-25T22:04:10.111Z,5.07
2019-03-25T22:06:39.959Z,2.80
2019-03-25T22:09:09.870Z,3.30
2019-03-25T22:11:39.822Z,3.43
2019-03-25T22:14:09.701Z,3.23
2019-03-25T22:16:41.751Z,3.07
2019-03-25T22:19:11.691Z,2.53
2019-03-25T22:21:42.845Z,3.43
2019-03-25T22:24:13.840Z,3.63
2019-03-25T22:26:43.696Z,4.17
2019-03-25T22:29:13.552Z,2.80
2019-03-25T22:31:43.520Z,4.33
2019-03-25T22:34:13.336Z,3.07
2019-03-25T22:36:43.264Z,3.10
2019-03-25T22:39:13.086Z,4.57
2019-03-25T22:41:43.053Z,3.83
2019-03-25T22:44:12.904Z,3.63
2019-03-25T22:46:42.761Z,3.80
2019-03-25T22:49:12.604Z,4.00
2019-03-25T22:51:42.462Z,3.37
2019-03-25T22:54:12.369Z,3.47
2019-03-25T22:56:42.297Z,3.13
2019-03-25T22:59:12.189Z,3.20
2019-03-25T23:01:42.201Z,3.30
2019-03-25T23:04:12.029Z,3.77
2019-03-25T23:06:41.875Z,3.57
2019-03-25T23:09:11.710Z,3.83
2019-03-25T23:11:41.638Z,3.10
2019-03-25T23:14:11.492Z,3.67
2019-03-25T23:16:41.439Z,3.47
2019-03-25T23:19:11.261Z,3.20
2019-03-25T23:21:41.075Z,3.57
2019-03-25T23:24:10.893Z,3.10
2019-03-25T23:26:40.776Z,4.30
2019-03-25T23:29:10.841Z,3.70
2019-03-25T23:31:40.725Z,4.33
2019-03-25T23:34:10.555Z,3.23
2019-03-25T23:36:40.406Z,2.97
2019-03-25T23:39:10.325Z,4.80
2019-03-25T23:41:40.133Z,3.20
2019-03-25T23:44:09.974Z,3.30
2019-03-25T23:46:39.778Z,4.23
2019-03-25T23:49:09.692Z,2.63
2019-03-25T23:51:39.493Z,4.10
2019-03-25T23:54:14.300Z,4.03
2019-03-25T23:56:44.268Z,3.20
2019-03-25T23:59:14.306Z,4.47
